Randolph AFB, Texas
Current Conditions -  °F | °C
As of 12:53 AM on Sunday 21 Dec 2014 (Local Time) from KRND Reporting Station
Overcast Overcast  
Wind Chill: 52°   Ceiling: 1900
Heat Index: 52°   Visibility: 10mi
Dew Point: 48°   Wind: 3mph
Humidity: 88%   Direction: 80°E
Pressure: 30.16"   Gusts: NA
Location:  29.5519°N, 98.3081°W
Report Text: KRND 210653Z AUTO 08003KT 10SM SCT009 OVC019 11/09 A3016 RMK AO2 CIG 009V019
Loading
Personal Weather Stations






























Interactive Weather Map New forecast layout! Learn more

10-Day Weather Forecast

Advertisements
Track Severe Weather on mobile